Time;durP1;ratioP1;P1;durP2;ratioP2;P2;SDS_P1;SDS_P2;PMS_P1;PMS_P2;Temp;Humidity;BMP_temperature;BMP_pressure;BME280_temperature;BME280_humidity;BME280_pressure;Samples;Min_cycle;Max_cycle;Signal;HPM_P1;HPM_P2
2023/03/01 00:02:01;;;;;;;0.10;0.10;;;3.90;94.50;;;;;;5051849;28;20428;-71
2023/03/01 00:04:27;;;;;;;1.08;0.95;;;3.90;95.20;;;;;;5052746;28;20033;-75
2023/03/01 00:06:53;;;;;;;0.20;0.20;;;3.80;95.00;;;;;;5035324;28;20073;-75
2023/03/01 00:09:19;;;;;;;0.75;0.43;;;3.70;95.50;;;;;;5053026;28;20082;-75
2023/03/01 00:11:45;;;;;;;0.10;0.10;;;3.70;95.70;;;;;;5052716;28;20104;-76
2023/03/01 00:14:11;;;;;;;0.25;0.25;;;3.50;96.50;;;;;;5052843;28;20033;-75
2023/03/01 00:16:39;;;;;;;1.70;1.60;;;3.30;96.90;;;;;;5052922;28;20543;-74
2023/03/01 00:19:07;;;;;;;0.63;0.50;;;3.30;97.50;;;;;;5052482;28;20473;-75
2023/03/01 00:21:35;;;;;;;0.10;0.10;;;3.10;98.10;;;;;;5052601;28;20060;-75
2023/03/01 00:24:01;;;;;;;0.93;0.85;;;3.30;98.20;;;;;;5053173;28;20025;-75
2023/03/01 00:26:27;;;;;;;0.10;0.10;;;3.30;98.30;;;;;;5052703;28;20033;-74
2023/03/01 00:28:57;;;;;;;0.10;0.10;;;3.30;98.60;;;;;;5051549;28;20473;-75
2023/03/01 00:31:29;;;;;;;0.10;0.10;;;3.20;98.80;;;;;;5051531;28;20029;-77
2023/03/01 00:33:57;;;;;;;0.10;0.10;;;3.30;98.80;;;;;;5052343;28;20167;-75
2023/03/01 00:36:25;;;;;;;0.17;0.17;;;3.20;99.20;;;;;;5051023;28;20108;-75
2023/03/01 00:38:50;;;;;;;0.10;0.10;;;3.30;99.00;;;;;;5051311;28;20033;-75
2023/03/01 00:41:18;;;;;;;0.38;0.38;;;3.20;99.20;;;;;;5052403;28;20040;-75
2023/03/01 00:43:44;;;;;;;0.10;0.10;;;3.30;99.40;;;;;;5052722;28;20470;-76
2023/03/01 00:46:14;;;;;;;0.10;0.10;;;3.30;99.20;;;;;;5052277;28;20028;-76
2023/03/01 00:48:40;;;;;;;0.10;0.10;;;3.30;99.30;;;;;;5050765;28;20122;-75
2023/03/01 00:51:08;;;;;;;0.10;0.10;;;3.30;99.30;;;;;;5051040;28;20387;-75
2023/03/01 00:53:34;;;;;;;0.17;0.17;;;3.20;99.80;;;;;;5052805;28;20067;-74
2023/03/01 00:56:00;;;;;;;0.10;0.10;;;3.10;99.90;;;;;;5052556;28;20032;-76
2023/03/01 00:58:27;;;;;;;0.20;0.20;;;3.10;99.90;;;;;;5052680;28;20029;-76
2023/03/01 01:00:52;;;;;;;0.10;0.10;;;3.00;99.90;;;;;;5052445;28;20026;-75
2023/03/01 01:03:19;;;;;;;0.90;0.90;;;3.10;99.90;;;;;;5050718;28;20035;-75
2023/03/01 01:05:45;;;;;;;0.75;0.75;;;3.10;99.90;;;;;;5052596;28;20022;-74
2023/03/01 01:08:11;;;;;;;0.30;0.30;;;2.90;99.90;;;;;;5050910;28;20536;-74
2023/03/01 01:10:36;;;;;;;0.10;0.10;;;2.90;99.90;;;;;;5034654;28;20036;-75
2023/03/01 01:13:03;;;;;;;0.30;0.30;;;2.90;99.90;;;;;;5052072;28;20017;-76
2023/03/01 01:15:29;;;;;;;0.10;0.10;;;3.00;99.90;;;;;;5052099;28;20040;-76
2023/03/01 01:17:55;;;;;;;0.10;0.10;;;2.90;99.90;;;;;;5052058;28;20029;-75
2023/03/01 01:20:21;;;;;;;0.35;0.35;;;3.00;99.90;;;;;;5052193;28;20036;-75
2023/03/01 01:22:46;;;;;;;0.10;0.10;;;2.90;99.90;;;;;;5052378;28;20029;-76
2023/03/01 01:25:12;;;;;;;0.10;0.10;;;2.90;99.90;;;;;;5050771;28;20013;-75
2023/03/01 01:27:38;;;;;;;0.10;0.10;;;2.80;99.90;;;;;;5051987;28;20078;-71
2023/03/01 01:30:04;;;;;;;0.10;0.10;;;2.70;99.90;;;;;;5052056;28;20037;-75
2023/03/01 01:32:30;;;;;;;0.57;0.57;;;2.80;99.90;;;;;;5050580;28;20423;-75
2023/03/01 01:34:56;;;;;;;0.30;0.30;;;2.80;99.90;;;;;;5084536;28;20111;-73
2023/03/01 01:37:22;;;;;;;0.10;0.10;;;2.70;99.90;;;;;;5084196;28;20397;-74
2023/03/01 01:39:48;;;;;;;0.10;0.10;;;2.60;99.90;;;;;;5052214;28;20044;-76
2023/03/01 01:42:18;;;;;;;0.10;0.10;;;2.70;99.90;;;;;;5050734;28;20037;-73
2023/03/01 01:44:47;;;;;;;0.30;0.30;;;2.80;99.90;;;;;;5051010;28;20025;-75
2023/03/01 01:47:19;;;;;;;0.10;0.10;;;2.70;99.90;;;;;;5051907;28;20025;-75
2023/03/01 01:49:49;;;;;;;1.45;0.68;;;2.40;99.90;;;;;;5053222;28;20102;-74
2023/03/01 01:52:22;;;;;;;0.28;0.28;;;2.10;99.90;;;;;;5055343;28;20462;-75
2023/03/01 01:54:57;;;;;;;0.40;0.40;;;2.20;99.90;;;;;;5055490;28;20025;-75
2023/03/01 01:57:33;;;;;;;0.10;0.10;;;2.30;99.90;;;;;;5055409;28;20040;-75
2023/03/01 02:00:03;;;;;;;0.10;0.10;;;2.40;99.90;;;;;;5053932;28;20416;-75
2023/03/01 02:02:40;;;;;;;0.35;0.35;;;2.60;99.90;;;;;;5054370;28;20033;-75
2023/03/01 02:05:18;;;;;;;0.40;0.40;;;2.50;99.90;;;;;;5053899;28;20025;-76
2023/03/01 02:07:46;;;;;;;0.20;0.20;;;2.50;99.90;;;;;;5037421;28;20413;-76
2023/03/01 02:10:12;;;;;;;0.20;0.20;;;2.50;99.90;;;;;;5053848;28;20505;-71
2023/03/01 02:12:38;;;;;;;0.10;0.10;;;2.30;99.90;;;;;;5053990;28;20017;-74
2023/03/01 02:15:05;;;;;;;0.10;0.10;;;2.40;99.90;;;;;;5054868;28;20381;-73
2023/03/01 02:17:32;;;;;;;0.30;0.30;;;2.40;99.90;;;;;;5053980;28;20028;-72
2023/03/01 02:20:15;;;;;;;0.20;0.20;;;2.60;99.90;;;;;;5053733;28;20044;-75
2023/03/01 02:22:44;;;;;;;0.10;0.10;;;2.70;99.90;;;;;;5055038;28;20048;-75
2023/03/01 02:25:19;;;;;;;0.15;0.15;;;2.50;99.90;;;;;;5054954;28;20104;-75
2023/03/01 02:27:56;;;;;;;0.25;0.25;;;2.20;99.90;;;;;;5053598;28;20392;-74
2023/03/01 02:30:24;;;;;;;0.10;0.10;;;2.40;99.90;;;;;;5053149;28;20064;-74
2023/03/01 02:32:51;;;;;;;0.10;0.10;;;2.40;99.90;;;;;;5053543;28;20071;-75
2023/03/01 02:35:19;;;;;;;0.10;0.10;;;2.30;99.90;;;;;;5054860;28;20459;-75
2023/03/01 02:37:46;;;;;;;1.00;0.95;;;2.40;99.90;;;;;;5053285;28;20658;-75
2023/03/01 02:40:17;;;;;;;4.07;2.45;;;2.30;99.90;;;;;;5086737;28;20077;-75
2023/03/01 02:42:55;;;;;;;0.38;0.38;;;2.30;99.90;;;;;;5054577;28;20409;-75
2023/03/01 02:45:21;;;;;;;0.10;0.10;;;2.30;99.90;;;;;;5053388;28;20029;-75
2023/03/01 02:47:47;;;;;;;1.52;0.90;;;2.40;99.90;;;;;;5054524;28;20426;-75
2023/03/01 02:50:39;;;;;;;0.77;0.77;;;2.20;99.90;;;;;;5053112;28;20121;-75
2023/03/01 02:53:21;;;;;;;0.88;0.80;;;2.20;99.90;;;;;;5052861;28;20044;-75
2023/03/01 02:55:46;;;;;;;0.10;0.10;;;2.20;99.90;;;;;;5054559;28;20127;-74
2023/03/01 02:58:12;;;;;;;0.10;0.10;;;2.20;99.90;;;;;;5053851;28;20041;-75
2023/03/01 03:00:45;;;;;;;0.10;0.10;;;2.20;99.90;;;;;;5053304;28;20036;-75
2023/03/01 03:03:18;;;;;;;0.20;0.20;;;2.20;99.90;;;;;;5052672;28;20451;-75
2023/03/01 03:05:44;;;;;;;0.25;0.25;;;2.30;99.90;;;;;;5054404;28;20079;-75
2023/03/01 03:08:11;;;;;;;0.40;0.40;;;2.20;99.90;;;;;;5052693;28;20028;-71
2023/03/01 03:10:39;;;;;;;0.10;0.10;;;2.20;99.90;;;;;;5052950;28;20064;-70
2023/03/01 03:13:08;;;;;;;0.98;0.43;;;2.10;99.90;;;;;;5085832;28;20544;-70
2023/03/01 03:15:35;;;;;;;0.20;0.20;;;2.20;99.90;;;;;;5086346;28;20024;-71
2023/03/01 03:18:04;;;;;;;0.10;0.10;;;2.20;99.90;;;;;;5052422;28;20033;-70
2023/03/01 03:20:30;;;;;;;0.20;0.20;;;2.10;99.90;;;;;;5052611;28;20086;-71
2023/03/01 03:22:58;;;;;;;0.10;0.10;;;2.00;99.90;;;;;;5054082;28;20025;-70
2023/03/01 03:25:25;;;;;;;2.08;1.88;;;2.10;99.90;;;;;;5053621;28;20025;-74
2023/03/01 03:27:56;;;;;;;0.10;0.10;;;2.10;99.90;;;;;;5053578;28;20017;-70
2023/03/01 03:30:25;;;;;;;0.28;0.28;;;2.10;99.90;;;;;;5051571;28;20482;-71
2023/03/01 03:32:53;;;;;;;0.20;0.20;;;2.30;99.90;;;;;;5053595;28;20029;-70
2023/03/01 03:35:29;;;;;;;0.10;0.10;;;2.10;99.90;;;;;;5053383;28;20112;-70
2023/03/01 03:38:01;;;;;;;0.10;0.10;;;2.00;99.90;;;;;;5053297;28;20032;-71
2023/03/01 03:40:34;;;;;;;0.20;0.20;;;2.00;99.90;;;;;;5052220;28;20068;-72
2023/03/01 03:43:00;;;;;;;0.10;0.10;;;1.90;99.90;;;;;;5053295;28;20060;-70
2023/03/01 03:45:25;;;;;;;0.10;0.10;;;2.00;99.90;;;;;;5052032;28;20112;-70
2023/03/01 03:47:51;;;;;;;0.22;0.22;;;1.90;99.90;;;;;;5053519;28;20079;-70
2023/03/01 03:50:18;;;;;;;1.10;1.02;;;2.00;99.90;;;;;;5053358;28;20041;-70
2023/03/01 03:52:44;;;;;;;0.10;0.10;;;1.80;99.90;;;;;;5053365;28;20025;-70
2023/03/01 03:55:11;;;;;;;1.42;1.33;;;1.90;99.90;;;;;;5053389;28;20025;-74
2023/03/01 03:57:41;;;;;;;0.30;0.30;;;1.80;99.90;;;;;;5039409;28;20028;-72
2023/03/01 04:00:12;;;;;;;0.10;0.10;;;1.80;99.90;;;;;;5052949;28;20021;-71
2023/03/01 04:02:42;;;;;;;0.75;0.75;;;1.70;99.90;;;;;;5053149;28;20110;-72
2023/03/01 04:05:10;;;;;;;0.10;0.10;;;1.80;99.90;;;;;;5052072;28;20025;-71
2023/03/01 04:07:37;;;;;;;0.10;0.10;;;1.90;99.90;;;;;;5053020;28;20036;-73
2023/03/01 04:10:04;;;;;;;1.38;1.27;;;1.90;99.90;;;;;;5052886;28;20090;-70
2023/03/01 04:12:30;;;;;;;0.10;0.10;;;1.90;99.90;;;;;;5052640;28;20515;-70
2023/03/01 04:14:56;;;;;;;0.50;0.50;;;1.90;99.90;;;;;;5052855;28;20032;-72
2023/03/01 04:17:22;;;;;;;0.10;0.10;;;1.90;99.90;;;;;;5053024;28;20488;-71
2023/03/01 04:19:48;;;;;;;0.45;0.45;;;1.90;99.90;;;;;;5051844;28;20127;-71
2023/03/01 04:22:18;;;;;;;0.40;0.40;;;1.80;99.90;;;;;;5052975;28;20079;-75
2023/03/01 04:24:44;;;;;;;0.68;0.68;;;1.90;99.90;;;;;;5052434;28;20090;-70
2023/03/01 04:27:11;;;;;;;0.10;0.10;;;1.80;99.90;;;;;;5052777;28;20028;-70
2023/03/01 04:29:37;;;;;;;1.23;0.80;;;1.90;99.90;;;;;;5052548;28;20072;-71
2023/03/01 04:32:03;;;;;;;0.10;0.10;;;1.70;99.90;;;;;;5051579;28;20021;-70
2023/03/01 04:34:29;;;;;;;0.10;0.10;;;1.60;99.90;;;;;;5052714;28;20040;-71
2023/03/01 04:36:55;;;;;;;0.10;0.10;;;1.60;99.90;;;;;;5052606;28;20031;-70
2023/03/01 04:39:21;;;;;;;0.68;0.68;;;1.70;99.90;;;;;;5052046;28;20028;-71
2023/03/01 04:41:47;;;;;;;2.30;1.27;;;1.80;99.90;;;;;;5051447;28;20021;-70
2023/03/01 04:44:13;;;;;;;0.20;0.20;;;1.80;99.90;;;;;;5051324;28;20021;-70
2023/03/01 04:46:39;;;;;;;0.10;0.10;;;1.70;99.90;;;;;;5084513;28;20061;-71
2023/03/01 04:49:05;;;;;;;0.55;0.55;;;1.70;99.90;;;;;;5052298;28;20044;-71
2023/03/01 04:51:34;;;;;;;0.20;0.20;;;1.60;99.90;;;;;;5052118;28;20029;-70
2023/03/01 04:54:00;;;;;;;0.40;0.40;;;1.60;99.90;;;;;;5050874;28;20627;-70
2023/03/01 04:56:26;;;;;;;0.20;0.20;;;1.50;99.90;;;;;;5051063;28;20108;-71
2023/03/01 04:58:53;;;;;;;0.20;0.20;;;1.70;99.90;;;;;;5052882;28;20444;-75
2023/03/01 05:01:20;;;;;;;0.50;0.50;;;1.60;99.90;;;;;;5052324;28;20390;-75
2023/03/01 05:03:55;;;;;;;1.08;1.08;;;1.60;99.90;;;;;;5052299;28;20052;-76
2023/03/01 05:06:21;;;;;;;0.82;0.82;;;1.70;99.90;;;;;;5052128;28;20044;-76
2023/03/01 05:08:47;;;;;;;0.10;0.10;;;1.70;99.90;;;;;;5050686;28;20131;-76
2023/03/01 05:11:13;;;;;;;0.13;0.13;;;1.50;99.90;;;;;;5052204;28;20056;-76
2023/03/01 05:13:39;;;;;;;0.10;0.10;;;1.50;99.90;;;;;;5052306;28;20029;-76
2023/03/01 05:16:06;;;;;;;0.57;0.57;;;1.50;99.90;;;;;;5051897;28;20021;-75
2023/03/01 05:18:33;;;;;;;0.45;0.45;;;1.60;99.90;;;;;;5052182;28;20116;-71
2023/03/01 05:21:08;;;;;;;0.10;0.10;;;1.60;99.90;;;;;;5051732;28;20648;-71
2023/03/01 05:23:34;;;;;;;0.50;0.50;;;1.70;99.90;;;;;;5053004;28;20496;-71
2023/03/01 05:26:03;;;;;;;0.20;0.20;;;1.80;99.90;;;;;;5055726;28;20013;-71
2023/03/01 05:28:30;;;;;;;0.13;0.13;;;1.70;99.90;;;;;;5055904;28;20076;-71
2023/03/01 05:30:56;;;;;;;1.10;1.10;;;1.90;99.90;;;;;;5055894;28;20147;-71
2023/03/01 05:33:23;;;;;;;0.95;0.65;;;1.80;99.90;;;;;;5055764;28;20385;-71
2023/03/01 05:35:50;;;;;;;0.10;0.10;;;1.70;99.90;;;;;;5055844;28;20036;-72
2023/03/01 05:38:16;;;;;;;0.20;0.20;;;1.70;99.90;;;;;;5054004;28;20106;-71
2023/03/01 05:40:44;;;;;;;0.30;0.30;;;1.70;99.90;;;;;;5055875;28;20041;-71
2023/03/01 05:43:10;;;;;;;0.15;0.15;;;1.70;99.90;;;;;;5055581;28;20028;-72
2023/03/01 05:45:38;;;;;;;0.10;0.10;;;1.60;99.90;;;;;;5055485;28;20037;-71
2023/03/01 05:48:04;;;;;;;0.17;0.17;;;1.70;99.90;;;;;;5055431;28;20101;-71
2023/03/01 05:50:34;;;;;;;1.00;0.90;;;1.60;99.90;;;;;;5054267;28;20055;-71
2023/03/01 05:53:07;;;;;;;0.20;0.20;;;1.60;99.90;;;;;;5055441;28;20055;-71
2023/03/01 05:55:34;;;;;;;0.20;0.20;;;1.70;99.90;;;;;;5055476;28;20037;-71
2023/03/01 05:58:02;;;;;;;0.10;0.10;;;1.80;99.90;;;;;;5087738;28;20036;-71
2023/03/01 06:00:29;;;;;;;0.30;0.30;;;1.70;99.90;;;;;;5055472;28;20374;-71
2023/03/01 06:02:57;;;;;;;0.10;0.10;;;1.80;99.90;;;;;;5054087;28;20045;-73
2023/03/01 06:05:24;;;;;;;0.13;0.13;;;1.70;99.90;;;;;;5052735;28;20465;-72
2023/03/01 06:07:50;;;;;;;0.43;0.43;;;1.60;99.90;;;;;;5057306;28;20807;-71
2023/03/01 06:10:17;;;;;;;0.20;0.20;;;1.50;99.90;;;;;;5054449;28;20045;-71
2023/03/01 06:12:43;;;;;;;1.23;1.13;;;1.50;99.90;;;;;;5052311;28;20400;-71
2023/03/01 06:15:11;;;;;;;0.20;0.20;;;1.30;99.90;;;;;;5058287;28;20043;-71
2023/03/01 06:17:40;;;;;;;0.10;0.10;;;1.40;99.90;;;;;;5051914;28;20029;-71
2023/03/01 06:20:14;;;;;;;0.20;0.20;;;1.60;99.90;;;;;;5055818;28;20428;-71
2023/03/01 06:22:40;;;;;;;0.82;0.82;;;1.60;99.90;;;;;;5053432;28;20043;-73
2023/03/01 06:25:07;;;;;;;0.70;0.70;;;1.50;99.90;;;;;;5052328;28;20273;-72
2023/03/01 06:27:33;;;;;;;7.50;1.52;;;1.50;99.90;;;;;;5055065;28;20021;-71
2023/03/01 06:29:59;;;;;;;0.45;0.45;;;1.50;99.90;;;;;;5049760;28;20043;-74
2023/03/01 06:32:24;;;;;;;0.10;0.10;;;1.50;99.90;;;;;;5054945;28;20437;-76
2023/03/01 06:34:50;;;;;;;0.52;0.52;;;1.60;99.90;;;;;;5051772;28;20130;-72
2023/03/01 06:37:16;;;;;;;0.10;0.10;;;1.60;99.90;;;;;;5039303;28;20112;-72
2023/03/01 06:39:42;;;;;;;0.25;0.25;;;1.60;99.90;;;;;;5054861;28;20458;-70
2023/03/01 06:42:09;;;;;;;2.42;1.23;;;1.70;99.90;;;;;;5053873;28;20020;-71
2023/03/01 06:44:36;;;;;;;0.22;0.22;;;1.60;99.90;;;;;;5050826;28;20041;-71
2023/03/01 06:47:03;;;;;;;0.15;0.15;;;1.70;99.90;;;;;;5061869;28;20458;-71
2023/03/01 06:49:29;;;;;;;0.10;0.10;;;1.70;99.90;;;;;;5063201;28;20131;-73
2023/03/01 06:51:54;;;;;;;0.20;0.20;;;1.70;99.90;;;;;;5039088;28;20105;-76
2023/03/01 06:54:22;;;;;;;0.10;0.10;;;1.90;99.90;;;;;;5051572;28;20432;-74
2023/03/01 06:56:48;;;;;;;0.10;0.10;;;1.90;99.90;;;;;;5063857;28;20480;-71
2023/03/01 06:59:15;;;;;;;0.10;0.10;;;1.80;99.90;;;;;;5063719;28;21495;-69
2023/03/01 07:01:41;;;;;;;0.22;0.22;;;2.00;99.90;;;;;;5062770;28;20089;-75
2023/03/01 07:04:06;;;;;;;0.20;0.20;;;2.00;99.90;;;;;;5051820;28;20069;-75
2023/03/01 07:06:32;;;;;;;3.78;1.98;;;2.10;99.90;;;;;;5052759;28;20032;-74
2023/03/01 07:08:58;;;;;;;1.17;1.17;;;2.10;99.90;;;;;;5054101;28;20054;-73
2023/03/01 07:11:24;;;;;;;0.47;0.47;;;2.20;99.90;;;;;;5052560;28;20044;-73
2023/03/01 07:13:50;;;;;;;0.10;0.10;;;2.20;99.90;;;;;;5052493;28;20025;-77
2023/03/01 07:16:15;;;;;;;1.75;1.13;;;2.20;99.90;;;;;;5086464;28;20041;-75
2023/03/01 07:18:42;;;;;;;0.40;0.40;;;2.10;99.90;;;;;;5053492;28;20025;-74
2023/03/01 07:21:09;;;;;;;0.65;0.65;;;2.10;99.90;;;;;;5053825;28;20032;-72
2023/03/01 07:23:35;;;;;;;1.05;1.05;;;2.10;99.90;;;;;;5052680;28;20044;-79
2023/03/01 07:26:01;;;;;;;2.85;2.65;;;2.20;99.90;;;;;;5053797;28;20020;-78
2023/03/01 07:28:27;;;;;;;0.10;0.10;;;2.20;99.90;;;;;;5053835;28;20044;-80
2023/03/01 07:31:01;;;;;;;0.10;0.10;;;2.40;99.90;;;;;;5049221;28;20036;-77
2023/03/01 07:33:27;;;;;;;1.08;0.95;;;2.50;99.90;;;;;;5049028;28;20029;-77
2023/03/01 07:35:57;;;;;;;0.95;0.90;;;2.60;99.90;;;;;;5056441;28;20098;-80
2023/03/01 07:38:23;;;;;;;0.15;0.15;;;2.60;99.90;;;;;;5049932;28;20024;-76
2023/03/01 07:40:49;;;;;;;1.10;0.52;;;2.70;99.90;;;;;;5050607;28;20063;-75
2023/03/01 07:43:15;;;;;;;0.13;0.13;;;2.90;99.90;;;;;;5062424;28;20028;-76
2023/03/01 07:45:40;;;;;;;5.40;0.60;;;3.00;99.90;;;;;;5061780;28;20119;-75
2023/03/01 07:48:06;;;;;;;0.57;0.57;;;3.00;99.90;;;;;;5058413;28;20050;-75
2023/03/01 07:50:32;;;;;;;4.00;2.42;;;3.20;99.90;;;;;;5052618;28;20037;-75
2023/03/01 07:52:58;;;;;;;2.17;1.45;;;3.00;99.90;;;;;;5050120;28;20029;-74
2023/03/01 07:55:23;;;;;;;1.17;0.80;;;3.00;99.90;;;;;;5060862;28;20056;-74
2023/03/01 07:57:49;;;;;;;0.60;0.60;;;3.00;99.90;;;;;;5061427;28;20036;-70
2023/03/01 08:00:15;;;;;;;0.10;0.10;;;3.20;99.90;;;;;;5057388;28;20040;-73
2023/03/01 08:02:41;;;;;;;0.52;0.52;;;3.20;99.90;;;;;;5051426;28;20021;-75
2023/03/01 08:05:09;;;;;;;0.43;0.43;;;3.30;99.90;;;;;;5051146;28;20036;-78
2023/03/01 08:07:34;;;;;;;0.13;0.13;;;3.30;99.90;;;;;;5049709;28;20033;-79
2023/03/01 08:10:00;;;;;;;0.30;0.30;;;3.30;99.90;;;;;;5052697;28;20048;-79
2023/03/01 08:12:27;;;;;;;0.25;0.25;;;3.50;99.90;;;;;;5051309;28;20029;-70
2023/03/01 08:14:54;;;;;;;1.23;1.10;;;3.60;99.90;;;;;;5051935;28;20095;-79
2023/03/01 08:17:19;;;;;;;3.30;0.63;;;3.70;99.90;;;;;;5052663;28;20025;-71
2023/03/01 08:19:45;;;;;;;2.17;0.47;;;3.70;99.90;;;;;;5053241;28;20036;-71
2023/03/01 08:22:11;;;;;;;1.75;1.17;;;3.70;99.90;;;;;;5034891;28;20024;-71
2023/03/01 08:24:37;;;;;;;0.20;0.20;;;3.80;99.90;;;;;;5050358;28;20052;-71
2023/03/01 08:27:02;;;;;;;1.35;0.82;;;3.90;99.90;;;;;;5051562;28;20365;-74
2023/03/01 08:29:31;;;;;;;2.08;1.40;;;3.80;99.90;;;;;;5052641;28;20568;-74
2023/03/01 08:31:57;;;;;;;1.05;0.65;;;3.80;99.90;;;;;;5052093;28;20025;-71
2023/03/01 08:34:22;;;;;;;1.58;1.20;;;4.00;99.90;;;;;;5052394;28;20063;-73
2023/03/01 08:36:50;;;;;;;0.45;0.45;;;3.90;99.90;;;;;;5052535;28;20021;-74
2023/03/01 08:39:18;;;;;;;0.70;0.70;;;4.00;99.90;;;;;;5052584;28;20120;-80
2023/03/01 08:41:44;;;;;;;2.15;1.02;;;4.00;99.90;;;;;;5052983;28;20051;-84
2023/03/01 08:44:11;;;;;;;0.63;0.63;;;4.20;99.90;;;;;;5051593;28;20025;-79
2023/03/01 08:46:40;;;;;;;0.65;0.65;;;4.20;99.90;;;;;;5052437;28;20432;-78
2023/03/01 08:49:07;;;;;;;3.22;2.90;;;4.30;99.90;;;;;;5052810;28;20068;-91
2023/03/01 08:51:36;;;;;;;0.63;0.63;;;4.30;99.90;;;;;;5052560;28;20033;-80
2023/03/01 08:54:07;;;;;;;2.30;1.33;;;4.30;99.90;;;;;;5052934;28;20028;-75
2023/03/01 08:56:33;;;;;;;2.00;1.85;;;4.30;99.90;;;;;;5052547;28;20474;-84
2023/03/01 08:58:59;;;;;;;2.92;1.25;;;4.40;99.90;;;;;;5056459;28;20028;-80
2023/03/01 09:01:25;;;;;;;2.30;1.25;;;4.50;99.90;;;;;;5057463;28;20584;-78
2023/03/01 09:03:51;;;;;;;4.47;1.08;;;4.40;99.90;;;;;;5056890;28;20116;-81
2023/03/01 09:06:17;;;;;;;4.47;1.70;;;4.50;99.80;;;;;;5049797;28;20021;-79
2023/03/01 09:08:46;;;;;;;1.70;1.60;;;4.40;99.80;;;;;;5034627;28;20022;-82
2023/03/01 09:11:15;;;;;;;13.80;1.98;;;4.60;99.60;;;;;;5053358;28;20032;-79
2023/03/01 09:13:40;;;;;;;5.82;2.20;;;4.70;99.40;;;;;;5063925;28;20064;-80
2023/03/01 09:16:07;;;;;;;3.67;2.25;;;4.80;99.20;;;;;;5064466;28;20017;-80
2023/03/01 09:18:34;;;;;;;2.15;1.52;;;4.70;98.50;;;;;;5057807;28;20024;-80
2023/03/01 09:21:06;;;;;;;4.88;1.60;;;4.70;99.10;;;;;;5056853;28;20071;-81
2023/03/01 09:23:34;;;;;;;1.77;1.15;;;4.80;98.70;;;;;;5053330;28;20029;-82
2023/03/01 09:26:00;;;;;;;8.50;1.92;;;4.80;99.20;;;;;;5064347;28;20466;-79
2023/03/01 09:28:26;;;;;;;0.20;0.20;;;5.00;98.70;;;;;;5057625;28;20032;-80
2023/03/01 09:30:51;;;;;;;2.05;1.67;;;5.10;98.30;;;;;;5061245;28;20036;-79
2023/03/01 09:33:17;;;;;;;0.30;0.30;;;5.20;98.00;;;;;;5054431;28;20028;-81
2023/03/01 09:35:46;;;;;;;0.32;0.32;;;5.50;97.70;;;;;;5061821;28;20094;-89
2023/03/01 09:38:15;;;;;;;0.52;0.22;;;5.80;97.60;;;;;;5063614;28;20528;-81
2023/03/01 09:40:47;;;;;;;0.47;0.28;;;6.10;97.20;;;;;;5065072;28;20025;-79
2023/03/01 09:43:19;;;;;;;2.42;1.33;;;5.90;96.70;;;;;;5059564;28;20024;-79
2023/03/01 09:45:47;;;;;;;3.03;1.65;;;6.10;96.60;;;;;;5048602;28;20032;-76
2023/03/01 09:48:23;;;;;;;0.45;0.45;;;6.10;96.50;;;;;;5051006;28;20018;-83
2023/03/01 09:50:50;;;;;;;0.20;0.20;;;6.20;96.60;;;;;;5058583;28;20119;-82
2023/03/01 09:53:22;;;;;;;1.48;1.30;;;6.30;96.20;;;;;;5066776;28;20035;-85
2023/03/01 09:55:58;;;;;;;0.55;0.52;;;6.40;96.00;;;;;;5058740;28;20446;-78
2023/03/01 09:58:58;;;;;;;2.42;1.23;;;6.50;95.80;;;;;;5058478;28;20103;-85
2023/03/01 10:01:48;;;;;;;1.52;1.42;;;6.50;95.40;;;;;;5051900;28;20124;-80
2023/03/01 10:04:44;;;;;;;0.20;0.20;;;6.50;95.20;;;;;;5066572;28;20043;-79
2023/03/01 10:07:10;;;;;;;7.53;1.83;;;6.50;95.20;;;;;;5050398;28;20032;-73
2023/03/01 10:09:44;;;;;;;2.92;0.90;;;6.40;95.20;;;;;;5053782;28;20401;-74
2023/03/01 10:12:20;;;;;;;13.07;2.08;;;6.50;95.60;;;;;;5052868;28;20485;-72
2023/03/01 10:15:22;;;;;;;5.03;2.63;;;6.70;95.30;;;;;;5057269;28;20052;-71
2023/03/01 10:18:02;;;;;;;0.50;0.50;;;6.50;95.00;;;;;;5058101;28;20025;-75
2023/03/01 10:20:52;;;;;;;5.30;3.33;;;6.80;95.10;;;;;;5046423;28;20043;-76
2023/03/01 10:23:18;;;;;;;0.10;0.10;;;6.40;95.00;;;;;;5033847;28;20521;-75
2023/03/01 10:25:55;;;;;;;2.25;2.05;;;6.50;95.10;;;;;;5050315;28;20033;-73
2023/03/01 10:28:53;;;;;;;2.35;2.15;;;6.60;95.00;;;;;;5054565;28;20032;-77
2023/03/01 10:31:27;;;;;;;5.05;2.35;;;7.00;94.50;;;;;;5048423;28;20109;-74
2023/03/01 10:33:55;;;;;;;2.58;1.77;;;7.10;94.30;;;;;;5053630;28;20064;-74
2023/03/01 10:36:22;;;;;;;2.50;1.75;;;7.40;94.20;;;;;;5054951;28;20421;-75
2023/03/01 10:38:54;;;;;;;0.70;0.70;;;7.20;93.80;;;;;;5054110;28;20055;-90
2023/03/01 10:41:24;;;;;;;1.30;0.88;;;7.30;93.70;;;;;;5054385;28;20035;-89
2023/03/01 10:43:59;;;;;;;4.93;1.90;;;7.40;93.50;;;;;;5055081;28;20025;-75
2023/03/01 10:46:27;;;;;;;6.32;3.10;;;7.10;94.00;;;;;;5054594;28;20025;-75
2023/03/01 10:49:25;;;;;;;5.00;1.42;;;7.10;94.10;;;;;;5054255;28;20035;-73
2023/03/01 10:51:53;;;;;;;8.23;1.33;;;7.10;94.30;;;;;;5054531;28;20037;-79
2023/03/01 10:54:33;;;;;;;1.30;1.20;;;7.40;93.80;;;;;;5053175;28;20418;-78
2023/03/01 10:56:58;;;;;;;0.30;0.30;;;7.80;93.40;;;;;;5054101;28;20033;-75
2023/03/01 10:59:27;;;;;;;3.33;1.33;;;8.20;93.20;;;;;;5052894;28;20025;-75
2023/03/01 11:02:14;;;;;;;1.63;1.05;;;8.50;92.80;;;;;;5053761;28;20033;-75
2023/03/01 11:05:00;;;;;;;1.45;1.00;;;8.70;92.30;;;;;;5054123;28;20115;-74
2023/03/01 11:07:26;;;;;;;0.30;0.30;;;8.90;92.60;;;;;;5052931;28;20029;-77
2023/03/01 11:09:52;;;;;;;1.45;0.85;;;9.40;91.70;;;;;;5054190;28;20049;-77
2023/03/01 11:12:18;;;;;;;1.27;1.10;;;9.60;91.90;;;;;;5052334;28;20035;-73
2023/03/01 11:14:57;;;;;;;1.08;0.98;;;9.90;91.40;;;;;;5054082;28;20025;-73
2023/03/01 11:17:33;;;;;;;2.40;1.50;;;10.70;91.30;;;;;;5053616;28;20440;-73
2023/03/01 11:20:06;;;;;;;1.42;1.33;;;10.30;90.80;;;;;;5054220;28;20033;-73
2023/03/01 11:22:35;;;;;;;3.22;1.83;;;10.70;90.60;;;;;;5052606;28;20087;-73
2023/03/01 11:25:02;;;;;;;0.40;0.40;;;11.00;90.30;;;;;;5053498;28;20037;-73
2023/03/01 11:27:40;;;;;;;0.60;0.60;;;12.00;88.90;;;;;;5053706;28;20111;-70
2023/03/01 11:30:26;;;;;;;1.13;1.02;;;12.70;86.80;;;;;;5053498;28;20033;-70
2023/03/01 11:33:14;;;;;;;4.03;1.90;;;12.40;85.40;;;;;;5085710;28;20032;-70
2023/03/01 11:36:01;;;;;;;0.85;0.85;;;12.40;85.40;;;;;;5053495;28;20481;-70
2023/03/01 11:38:28;;;;;;;0.47;0.47;;;12.10;85.60;;;;;;5042121;28;20028;-71
2023/03/01 11:41:11;;;;;;;1.33;0.77;;;12.70;85.50;;;;;;5053103;28;20470;-73
2023/03/01 11:43:42;;;;;;;0.20;0.20;;;12.90;83.80;;;;;;5052082;28;20064;-74
2023/03/01 11:46:42;;;;;;;0.73;0.73;;;13.70;83.20;;;;;;5053410;28;20032;-71
2023/03/01 11:49:36;;;;;;;1.00;0.65;;;13.60;82.30;;;;;;5041885;28;20071;-71
2023/03/01 11:52:01;;;;;;;0.10;0.10;;;13.10;82.40;;;;;;5053009;28;20044;-70
2023/03/01 11:55:04;;;;;;;3.35;1.27;;;13.80;82.00;;;;;;5052656;28;20025;-70
2023/03/01 11:57:42;;;;;;;0.52;0.50;;;13.70;81.50;;;;;;5041002;28;20044;-71
2023/03/01 12:00:30;;;;;;;0.40;0.40;;;13.30;81.70;;;;;;5053017;28;20070;-71
2023/03/01 12:03:23;;;;;;;0.15;0.15;;;13.80;81.50;;;;;;5053119;28;20116;-71
2023/03/01 12:06:06;;;;;;;1.65;0.47;;;14.00;81.40;;;;;;5051283;28;20026;-73
2023/03/01 12:08:42;;;;;;;2.03;1.20;;;14.10;81.10;;;;;;5047231;28;20044;-72
2023/03/01 12:11:36;;;;;;;2.05;1.65;;;14.60;80.20;;;;;;5051862;28;20041;-71
2023/03/01 12:14:13;;;;;;;2.67;0.82;;;14.10;78.90;;;;;;5052857;28;20103;-71
2023/03/01 12:16:58;;;;;;;1.45;1.35;;;15.10;78.20;;;;;;5051403;28;20031;-71
2023/03/01 12:19:24;;;;;;;0.22;0.22;;;14.50;78.20;;;;;;5051494;28;20028;-72
2023/03/01 12:21:52;;;;;;;2.08;1.83;;;15.50;77.00;;;;;;5052611;28;20033;-72
2023/03/01 12:24:40;;;;;;;0.43;0.43;;;14.40;77.50;;;;;;5051245;28;20465;-72
2023/03/01 12:27:27;;;;;;;7.63;0.85;;;15.40;77.30;;;;;;5051560;28;20025;-71
2023/03/01 12:30:25;;;;;;;0.00;0.00;;;15.60;78.00;;;;;;5040718;28;20037;-72
2023/03/01 12:32:59;;;;;;;0.20;0.20;;;16.90;77.00;;;;;;5051071;28;20017;-71
2023/03/01 12:35:38;;;;;;;2.65;1.83;;;15.90;74.60;;;;;;5051462;28;20029;-71
2023/03/01 12:38:25;;;;;;;2.03;0.95;;;16.00;75.30;;;;;;5051819;28;20118;-72
2023/03/01 12:41:21;;;;;;;1.73;0.85;;;16.80;74.30;;;;;;5051235;28;20045;-72
2023/03/01 12:43:50;;;;;;;0.73;0.35;;;15.60;74.60;;;;;;5049918;28;20072;-71
2023/03/01 12:46:54;;;;;;;0.30;0.30;;;17.00;74.70;;;;;;5048826;28;20127;-71
2023/03/01 12:49:28;;;;;;;0.95;0.70;;;16.00;72.30;;;;;;5029657;28;20469;-72
2023/03/01 12:52:13;;;;;;;1.02;0.63;;;16.50;73.10;;;;;;5051954;28;20033;-72
2023/03/01 12:54:38;;;;;;;5.72;3.63;;;16.90;73.10;;;;;;5052309;28;20481;-72
2023/03/01 12:57:36;;;;;;;1.33;0.68;;;17.30;72.20;;;;;;5052286;28;20056;-72
2023/03/01 13:00:27;;;;;;;0.75;0.43;;;17.80;72.50;;;;;;5046876;28;20103;-73
2023/03/01 13:03:13;;;;;;;0.68;0.52;;;17.70;72.70;;;;;;5044906;28;20021;-72
2023/03/01 13:06:18;;;;;;;0.47;0.32;;;17.50;71.20;;;;;;5050611;28;20075;-72
2023/03/01 13:09:00;;;;;;;3.72;1.58;;;17.90;72.30;;;;;;5047681;28;20091;-72
2023/03/01 13:11:26;;;;;;;1.00;0.68;;;18.60;71.40;;;;;;5052060;28;20040;-72
2023/03/01 13:13:54;;;;;;;0.20;0.20;;;18.30;70.10;;;;;;5052154;28;20028;-72